Time;durP1;ratioP1;P1;durP2;ratioP2;P2;SDS_P1;SDS_P2;PMS_P1;PMS_P2;Temp;Humidity;BMP_temperature;BMP_pressure;BME280_temperature;BME280_humidity;BME280_pressure;Samples;Min_cycle;Max_cycle;Signal;HPM_P1;HPM_P2
2021/12/09 00:01:23;;;;;;;20.15;10.15;;;1.60;99.90;;;;;;5070147;28;20774;-73
2021/12/09 00:03:53;;;;;;;18.08;9.43;;;1.50;99.90;;;;;;5070695;28;20566;-73
2021/12/09 00:06:26;;;;;;;17.15;9.82;;;2.10;99.90;;;;;;5071351;28;20166;-73
2021/12/09 00:08:54;;;;;;;15.88;9.57;;;1.70;99.90;;;;;;5071628;28;20102;-73
2021/12/09 00:11:20;;;;;;;15.00;9.13;;;;;;;;;;5070433;28;20055;-73
2021/12/09 00:13:46;;;;;;;15.85;9.40;;;1.30;99.90;;;;;;5070600;28;20044;-73
2021/12/09 00:16:15;;;;;;;18.40;10.07;;;1.20;99.90;;;;;;5070768;28;20041;-73
2021/12/09 00:18:43;;;;;;;23.25;9.98;;;1.20;99.90;;;;;;5071970;28;20052;-73
2021/12/09 00:21:09;;;;;;;19.30;10.55;;;1.20;99.90;;;;;;5071577;28;20040;-72
2021/12/09 00:23:35;;;;;;;23.63;10.68;;;;;;;;;;5069887;28;20043;-72
2021/12/09 00:26:01;;;;;;;21.33;10.43;;;1.40;99.90;;;;;;5071521;28;20040;-72
2021/12/09 00:28:28;;;;;;;23.10;10.43;;;;;;;;;;5069809;28;20055;-72
2021/12/09 00:30:54;;;;;;;23.95;10.90;;;1.30;99.90;;;;;;5069769;28;20041;-72
2021/12/09 00:33:20;;;;;;;21.88;10.85;;;1.40;99.90;;;;;;5069722;28;20052;-72
2021/12/09 00:35:55;;;;;;;19.45;10.65;;;1.50;99.90;;;;;;5070972;28;20045;-72
2021/12/09 00:38:33;;;;;;;24.15;11.07;;;1.40;99.90;;;;;;5071183;28;20119;-72
2021/12/09 00:41:00;;;;;;;20.23;10.93;;;1.50;99.90;;;;;;5069614;28;20515;-72
2021/12/09 00:43:27;;;;;;;23.13;10.20;;;1.40;99.90;;;;;;5069443;28;20201;-72
2021/12/09 00:45:52;;;;;;;25.70;11.13;;;2.10;99.90;;;;;;5069134;28;20147;-73
2021/12/09 00:48:18;;;;;;;23.77;11.20;;;1.60;99.90;;;;;;5069310;28;20177;-72
2021/12/09 00:50:45;;;;;;;22.13;11.50;;;1.60;99.90;;;;;;5069427;28;20040;-72
2021/12/09 00:53:11;;;;;;;23.52;11.80;;;1.30;99.90;;;;;;5069284;28;20040;-73
2021/12/09 00:55:37;;;;;;;20.50;11.90;;;1.20;99.90;;;;;;5069385;28;20044;-72
2021/12/09 00:58:04;;;;;;;25.05;12.18;;;1.40;99.90;;;;;;5069470;28;20193;-72
2021/12/09 01:00:31;;;;;;;24.30;11.63;;;1.20;99.90;;;;;;5069488;28;20150;-72
2021/12/09 01:02:59;;;;;;;23.85;12.73;;;1.30;99.90;;;;;;5069092;28;20040;-72
2021/12/09 01:05:25;;;;;;;24.30;12.10;;;1.40;99.90;;;;;;5070627;28;20043;-71
2021/12/09 01:07:51;;;;;;;26.60;12.77;;;1.40;99.90;;;;;;5068787;28;20057;-71
2021/12/09 01:10:18;;;;;;;23.52;12.52;;;1.40;99.90;;;;;;5068765;28;20094;-71
2021/12/09 01:12:45;;;;;;;25.48;12.90;;;1.40;99.90;;;;;;5052654;28;20523;-72
2021/12/09 01:15:14;;;;;;;25.60;12.82;;;1.50;99.90;;;;;;5069326;28;20044;-73
2021/12/09 01:17:41;;;;;;;21.90;12.55;;;1.50;99.90;;;;;;5069396;28;20543;-73
2021/12/09 01:20:09;;;;;;;21.83;12.68;;;1.40;99.90;;;;;;5069404;28;20040;-72
2021/12/09 01:22:42;;;;;;;26.35;12.30;;;;;;;;;;5069736;28;20055;-72
2021/12/09 01:25:11;;;;;;;27.17;12.95;;;0.50;99.90;;;;;;5069472;28;20488;-72
2021/12/09 01:27:40;;;;;;;26.38;13.27;;;2.00;99.90;;;;;;5070419;28;20101;-72
2021/12/09 01:30:12;;;;;;;22.10;12.45;;;1.60;99.90;;;;;;5069197;28;20045;-73
2021/12/09 01:32:42;;;;;;;28.73;12.38;;;1.50;99.90;;;;;;5068860;28;20123;-73
2021/12/09 01:35:09;;;;;;;21.17;11.82;;;1.00;99.90;;;;;;5069096;28;20094;-72
2021/12/09 01:37:36;;;;;;;19.13;12.15;;;;;;;;;;5069473;28;20121;-72
2021/12/09 01:40:04;;;;;;;23.17;11.85;;;1.50;99.90;;;;;;5069344;28;20055;-72
2021/12/09 01:42:31;;;;;;;23.83;12.25;;;;;;;;;;5069636;28;20446;-72
2021/12/09 01:44:57;;;;;;;25.55;12.10;;;;;;;;;;5068669;28;20040;-71
2021/12/09 01:47:23;;;;;;;28.83;12.32;;;1.00;99.90;;;;;;5068877;28;20480;-72
2021/12/09 01:49:49;;;;;;;21.67;12.20;;;1.10;99.90;;;;;;5068970;28;20106;-72
2021/12/09 01:52:15;;;;;;;21.13;12.18;;;;;;;;;;5068824;28;20044;-73
2021/12/09 01:54:40;;;;;;;23.88;12.15;;;0.20;99.90;;;;;;5068738;28;20044;-73
2021/12/09 01:57:07;;;;;;;22.05;11.07;;;0.90;99.90;;;;;;5068684;28;20420;-72
2021/12/09 01:59:33;;;;;;;22.92;11.95;;;0.30;99.90;;;;;;5052200;28;20076;-73
2021/12/09 02:02:00;;;;;;;24.98;12.68;;;1.00;99.90;;;;;;5069310;28;20052;-72
2021/12/09 02:04:26;;;;;;;29.33;13.10;;;1.80;99.90;;;;;;5069181;28;20048;-72
2021/12/09 02:06:52;;;;;;;33.35;14.45;;;0.80;99.90;;;;;;5052198;28;20041;-72
2021/12/09 02:09:18;;;;;;;26.35;14.18;;;0.90;99.90;;;;;;5068761;28;20113;-72
2021/12/09 02:11:48;;;;;;;26.20;12.88;;;1.00;99.90;;;;;;5070162;28;20052;-72
2021/12/09 02:14:14;;;;;;;24.17;13.65;;;1.20;99.90;;;;;;5068876;28;20102;-72
2021/12/09 02:16:40;;;;;;;26.20;13.57;;;1.10;99.90;;;;;;5068964;28;20515;-72
2021/12/09 02:19:08;;;;;;;24.73;13.27;;;1.30;99.90;;;;;;5068963;28;20040;-72
2021/12/09 02:21:35;;;;;;;27.08;13.77;;;1.60;99.90;;;;;;5072108;28;20049;-72
2021/12/09 02:24:07;;;;;;;28.65;13.57;;;1.50;99.90;;;;;;5072265;28;20048;-72
2021/12/09 02:26:41;;;;;;;24.45;13.65;;;0.80;99.90;;;;;;5072280;28;20424;-73
2021/12/09 02:29:11;;;;;;;32.15;14.10;;;1.00;99.90;;;;;;5071978;28;20044;-72
2021/12/09 02:31:37;;;;;;;26.38;13.38;;;0.80;99.90;;;;;;5055350;28;20040;-66
2021/12/09 02:34:04;;;;;;;24.27;13.30;;;2.40;99.90;;;;;;5072009;28;20071;-66
2021/12/09 02:36:35;;;;;;;28.85;14.63;;;0.50;99.90;;;;;;5071873;28;20044;-66
2021/12/09 02:39:01;;;;;;;27.95;14.02;;;1.10;99.90;;;;;;5071730;28;20099;-66
2021/12/09 02:41:27;;;;;;;19.75;13.05;;;0.80;99.90;;;;;;5071819;28;20136;-66
2021/12/09 02:43:57;;;;;;;28.70;13.35;;;0.90;99.90;;;;;;5072134;28;20067;-66
2021/12/09 02:46:25;;;;;;;27.85;13.93;;;1.60;99.90;;;;;;5071693;28;20143;-66
2021/12/09 02:48:51;;;;;;;34.67;16.17;;;1.10;99.90;;;;;;5071714;28;20043;-66
2021/12/09 02:51:18;;;;;;;31.67;14.80;;;;;;;;;;5055236;28;20055;-66
2021/12/09 02:53:46;;;;;;;28.33;15.13;;;0.90;99.90;;;;;;5071700;28;20048;-67
2021/12/09 02:56:12;;;;;;;30.13;15.25;;;0.80;99.90;;;;;;5071847;28;20055;-67
2021/12/09 02:58:39;;;;;;;28.02;14.07;;;0.90;99.90;;;;;;5071671;28;20052;-67
2021/12/09 03:01:16;;;;;;;27.42;13.70;;;0.90;99.90;;;;;;5071617;28;20048;-67
2021/12/09 03:03:50;;;;;;;27.45;14.57;;;0.80;99.90;;;;;;5071703;28;20119;-67
2021/12/09 03:06:21;;;;;;;24.35;13.68;;;0.80;99.90;;;;;;5071700;28;20046;-67
2021/12/09 03:08:49;;;;;;;27.40;14.32;;;1.10;99.90;;;;;;5071166;28;20109;-67
2021/12/09 03:11:19;;;;;;;27.75;13.80;;;0.70;99.90;;;;;;5054672;28;20556;-67
2021/12/09 03:13:45;;;;;;;29.27;14.88;;;1.40;99.90;;;;;;5072540;28;20420;-67
2021/12/09 03:16:11;;;;;;;27.63;14.85;;;0.80;99.90;;;;;;5071228;28;20043;-67
2021/12/09 03:18:48;;;;;;;35.53;14.43;;;0.80;99.90;;;;;;5072182;28;20044;-67
2021/12/09 03:21:19;;;;;;;25.73;13.40;;;0.80;99.90;;;;;;5054740;28;20048;-67
2021/12/09 03:23:46;;;;;;;29.48;14.32;;;-0.60;99.90;;;;;;5071332;28;20052;-67
2021/12/09 03:26:12;;;;;;;26.35;14.60;;;0.10;99.90;;;;;;5071540;28;20396;-67
2021/12/09 03:28:38;;;;;;;32.03;16.05;;;0.70;99.90;;;;;;5054312;28;20036;-67
2021/12/09 03:31:05;;;;;;;28.58;15.27;;;;;;;;;;5070238;28;20412;-67
2021/12/09 03:33:31;;;;;;;30.77;15.57;;;-0.10;99.90;;;;;;5070302;28;20044;-67
2021/12/09 03:36:04;;;;;;;30.42;15.50;;;0.10;99.90;;;;;;5070724;28;20377;-67
2021/12/09 03:38:31;;;;;;;32.50;16.10;;;0.10;99.90;;;;;;5070729;28;20048;-67
2021/12/09 03:40:57;;;;;;;30.27;15.88;;;;;;;;;;5070814;28;20080;-67
2021/12/09 03:43:25;;;;;;;26.75;15.30;;;0.60;99.90;;;;;;5071145;28;20471;-67
2021/12/09 03:45:54;;;;;;;31.42;16.15;;;0.80;99.90;;;;;;5070946;28;20581;-67
2021/12/09 03:48:21;;;;;;;33.35;15.73;;;0.60;99.90;;;;;;5071178;28;20381;-66
2021/12/09 03:50:51;;;;;;;31.30;16.63;;;;;;;;;;5072135;28;20055;-67
2021/12/09 03:53:16;;;;;;;37.88;16.65;;;1.10;99.90;;;;;;5070730;28;20041;-67
2021/12/09 03:55:44;;;;;;;30.52;16.42;;;;;;;;;;5070378;28;20129;-67
2021/12/09 03:58:10;;;;;;;33.05;15.82;;;1.30;99.90;;;;;;5070551;28;20385;-67
2021/12/09 04:00:36;;;;;;;29.48;15.77;;;1.60;99.90;;;;;;5070134;28;20051;-67
2021/12/09 04:03:02;;;;;;;31.70;16.55;;;0.50;99.90;;;;;;5070538;28;20439;-67
2021/12/09 04:05:28;;;;;;;31.30;16.35;;;0.20;99.90;;;;;;5071437;28;20044;-67
2021/12/09 04:07:54;;;;;;;33.53;17.63;;;;;;;;;;5070077;28;20485;-67
2021/12/09 04:10:21;;;;;;;33.75;16.63;;;1.10;99.90;;;;;;5070326;28;20048;-67
2021/12/09 04:12:47;;;;;;;41.42;16.65;;;1.20;99.90;;;;;;5069980;28;20040;-67
2021/12/09 04:15:13;;;;;;;32.08;16.20;;;0.60;99.90;;;;;;5070277;28;20396;-67
2021/12/09 04:17:39;;;;;;;30.80;16.92;;;0.70;99.90;;;;;;5053251;28;20050;-67
2021/12/09 04:20:08;;;;;;;34.03;17.10;;;0.50;99.90;;;;;;5069864;28;20044;-67
2021/12/09 04:22:34;;;;;;;32.20;16.48;;;1.20;99.90;;;;;;5069674;28;20035;-67
2021/12/09 04:25:00;;;;;;;31.98;16.83;;;;;;;;;;5069853;28;20048;-66
2021/12/09 04:27:26;;;;;;;34.03;17.67;;;1.30;99.90;;;;;;5069778;28;20044;-67
2021/12/09 04:29:54;;;;;;;36.53;17.65;;;0.40;99.90;;;;;;5069919;28;20097;-67
2021/12/09 04:32:20;;;;;;;40.67;19.25;;;1.20;99.90;;;;;;5071344;28;20453;-67
2021/12/09 04:34:47;;;;;;;35.05;19.15;;;0.40;99.90;;;;;;5069770;28;20080;-67
2021/12/09 04:37:13;;;;;;;34.80;18.33;;;0.10;99.90;;;;;;5069967;28;20040;-67
2021/12/09 04:39:40;;;;;;;39.38;19.40;;;0.10;99.90;;;;;;5069616;28;20036;-67
2021/12/09 04:42:07;;;;;;;38.67;18.98;;;0.60;99.90;;;;;;5069754;28;20056;-67
2021/12/09 04:44:33;;;;;;;41.08;19.80;;;0.50;99.90;;;;;;5069898;28;20462;-67
2021/12/09 04:47:01;;;;;;;44.80;20.20;;;0.60;99.90;;;;;;5069471;28;20393;-67
2021/12/09 04:49:27;;;;;;;48.17;19.95;;;;;;;;;;5069407;28;20052;-67
2021/12/09 04:51:53;;;;;;;40.53;19.88;;;1.50;99.90;;;;;;5069685;28;20064;-67
2021/12/09 04:54:19;;;;;;;39.70;20.05;;;1.60;99.90;;;;;;5069672;28;20488;-67
2021/12/09 04:56:45;;;;;;;43.88;19.58;;;1.20;99.90;;;;;;5069410;28;20040;-67
2021/12/09 04:59:10;;;;;;;37.85;19.60;;;0.60;99.90;;;;;;5052715;28;20052;-66
2021/12/09 05:01:37;;;;;;;40.17;19.35;;;0.60;99.90;;;;;;5052502;28;20407;-67
2021/12/09 05:04:04;;;;;;;38.85;20.05;;;0.70;99.90;;;;;;5069405;28;20451;-67
2021/12/09 05:06:29;;;;;;;43.08;20.70;;;0.60;99.90;;;;;;5069368;28;20501;-67
2021/12/09 05:09:04;;;;;;;38.40;20.83;;;0.60;99.90;;;;;;5068866;28;20131;-67
2021/12/09 05:13:57;;;;;;;39.03;20.80;;;0.60;99.90;;;;;;5069406;28;20057;-67
2021/12/09 05:16:23;;;;;;;38.58;19.80;;;;;;;;;;5068944;28;20056;-67
2021/12/09 05:18:50;;;;;;;45.70;20.58;;;0.60;99.90;;;;;;5068929;28;20047;-67
2021/12/09 05:21:17;;;;;;;45.28;20.98;;;0.70;99.90;;;;;;5069158;28;20088;-67
2021/12/09 05:23:46;;;;;;;44.95;19.75;;;0.50;99.90;;;;;;5052694;28;20044;-67
2021/12/09 05:26:14;;;;;;;46.67;21.17;;;;;;;;;;5069381;28;20067;-67
2021/12/09 05:28:40;;;;;;;43.45;20.33;;;;;;;;;;5068752;28;20044;-68
2021/12/09 05:33:51;;;;;;;43.67;21.67;;;0.40;99.90;;;;;;5068979;28;20056;-66
2021/12/09 05:36:18;;;;;;;41.20;21.42;;;-0.30;99.90;;;;;;5069273;28;20040;-67
2021/12/09 05:38:44;;;;;;;43.05;22.70;;;0.90;99.90;;;;;;5052493;28;20184;-67
2021/12/09 05:41:11;;;;;;;49.33;21.13;;;-0.10;99.90;;;;;;5069345;28;20059;-66
2021/12/09 05:43:37;;;;;;;39.95;20.42;;;0.70;99.90;;;;;;5068992;28;20053;-67
2021/12/09 05:46:04;;;;;;;41.53;20.30;;;0.50;99.90;;;;;;5068979;28;20511;-66
2021/12/09 05:48:30;;;;;;;41.67;21.25;;;0.90;99.90;;;;;;5069037;28;20396;-67
2021/12/09 05:50:56;;;;;;;45.38;19.80;;;0.20;99.90;;;;;;5068638;28;20119;-67
2021/12/09 05:53:22;;;;;;;41.63;20.77;;;0.80;99.90;;;;;;5068890;28;20441;-67
2021/12/09 05:55:48;;;;;;;33.08;19.73;;;0.50;99.90;;;;;;5071694;28;20428;-66
2021/12/09 05:58:17;;;;;;;34.92;20.40;;;0.60;99.90;;;;;;5072789;28;20133;-67
2021/12/09 06:00:44;;;;;;;45.13;21.40;;;0.60;99.90;;;;;;5072626;28;20063;-67
2021/12/09 06:03:12;;;;;;;43.65;21.90;;;0.60;99.90;;;;;;5072659;28;20109;-67
2021/12/09 06:05:39;;;;;;;47.25;20.98;;;;;;;;;;5072830;28;20409;-67
2021/12/09 06:08:05;;;;;;;42.55;22.08;;;0.80;99.90;;;;;;5072622;28;20388;-67
2021/12/09 06:10:33;;;;;;;45.42;21.83;;;0.40;99.90;;;;;;5072102;28;20123;-67
2021/12/09 06:13:00;;;;;;;48.95;22.20;;;;;;;;;;5055746;28;20127;-67
2021/12/09 06:15:27;;;;;;;34.83;20.27;;;0.40;99.90;;;;;;5073517;28;20392;-67
2021/12/09 06:17:53;;;;;;;38.75;21.05;;;0.40;99.90;;;;;;5072455;28;20067;-67
2021/12/09 06:20:19;;;;;;;39.72;20.67;;;;;;;;;;5071929;28;20070;-67
2021/12/09 06:22:45;;;;;;;39.88;20.38;;;;;;;;;;5072253;28;20723;-67
2021/12/09 06:25:17;;;;;;;48.80;22.42;;;0.50;99.90;;;;;;5072258;28;20082;-67
2021/12/09 06:27:44;;;;;;;49.40;22.23;;;0.90;99.90;;;;;;5072185;28;20122;-67
2021/12/09 06:30:11;;;;;;;49.20;23.13;;;0.30;99.90;;;;;;5071968;28;20055;-67
2021/12/09 06:32:36;;;;;;;35.30;20.70;;;-0.40;99.90;;;;;;5071712;28;20040;-66
2021/12/09 06:35:05;;;;;;;47.50;23.27;;;0.40;99.90;;;;;;5071636;28;20395;-67
2021/12/09 06:37:31;;;;;;;44.50;22.85;;;;;;;;;;5071798;28;20045;-67
2021/12/09 06:39:57;;;;;;;48.58;22.88;;;0.40;99.90;;;;;;5072099;28;20040;-67
2021/12/09 06:42:23;;;;;;;47.13;23.60;;;1.10;99.90;;;;;;5054939;28;20094;-67
2021/12/09 06:44:50;;;;;;;44.83;23.63;;;0.20;99.90;;;;;;5071546;28;20037;-67
2021/12/09 06:47:16;;;;;;;42.08;22.13;;;1.00;99.90;;;;;;5071265;28;20060;-67
2021/12/09 06:49:43;;;;;;;42.92;22.85;;;;;;;;;;5072887;28;20134;-67
2021/12/09 06:52:09;;;;;;;47.15;22.58;;;;;;;;;;5054745;28;20040;-67
2021/12/09 06:54:36;;;;;;;55.47;23.63;;;;;;;;;;5071843;28;20075;-67
2021/12/09 06:57:02;;;;;;;47.92;24.20;;;;;;;;;;5071606;28;20136;-66
2021/12/09 06:59:28;;;;;;;51.08;24.20;;;0.00;99.90;;;;;;5071144;28;20503;-67
2021/12/09 07:01:54;;;;;;;47.78;22.25;;;0.40;99.90;;;;;;5082837;28;20048;-67
2021/12/09 07:04:20;;;;;;;49.63;22.55;;;;;;;;;;5059935;28;20055;-67
2021/12/09 07:06:46;;;;;;;52.83;23.33;;;;;;;;;;5067646;28;20098;-67
2021/12/09 07:09:13;;;;;;;46.85;24.02;;;0.60;99.90;;;;;;5071291;28;20044;-67
2021/12/09 07:11:39;;;;;;;50.33;23.27;;;0.30;99.90;;;;;;5071706;28;20461;-67
2021/12/09 07:14:05;;;;;;;46.95;23.30;;;;;;;;;;5071262;28;20055;-67
2021/12/09 07:16:31;;;;;;;54.28;23.95;;;;;;;;;;5064570;28;20043;-67
2021/12/09 07:18:58;;;;;;;48.42;23.85;;;0.50;99.90;;;;;;5058376;28;20443;-67
2021/12/09 07:21:25;;;;;;;46.13;22.75;;;;;;;;;;5053336;28;20084;-66
2021/12/09 07:23:51;;;;;;;49.47;24.75;;;;;;;;;;5053637;28;20059;-67
2021/12/09 07:26:17;;;;;;;52.45;23.48;;;0.10;99.90;;;;;;5053752;28;20673;-67
2021/12/09 07:28:44;;;;;;;52.35;23.05;;;;;;;;;;5070035;28;20084;-67
2021/12/09 07:31:10;;;;;;;53.65;24.75;;;0.60;99.90;;;;;;5070395;28;20037;-67
2021/12/09 07:33:36;;;;;;;44.83;22.70;;;;;;;;;;5070915;28;20094;-67
2021/12/09 07:36:02;;;;;;;45.95;22.75;;;0.20;99.90;;;;;;5069667;28;20052;-67
2021/12/09 07:38:28;;;;;;;53.30;26.95;;;;;;;;;;5069735;28;20052;-71
2021/12/09 07:40:54;;;;;;;52.08;23.35;;;1.10;99.90;;;;;;5070241;28;20571;-71
2021/12/09 07:43:19;;;;;;;52.33;23.25;;;0.30;99.90;;;;;;5053234;28;20143;-71
2021/12/09 07:45:45;;;;;;;46.17;22.90;;;;;;;;;;5069538;28;20390;-71
2021/12/09 07:48:11;;;;;;;56.03;21.73;;;0.50;99.90;;;;;;5069893;28;20051;-71
2021/12/09 07:50:38;;;;;;;45.63;22.35;;;;;;;;;;5069625;28;20056;-72
2021/12/09 07:53:04;;;;;;;46.25;22.73;;;1.30;99.90;;;;;;5069493;28;20055;-71
2021/12/09 07:55:30;;;;;;;45.88;22.27;;;-0.10;99.90;;;;;;5053179;28;20131;-72
2021/12/09 07:57:56;;;;;;;56.60;22.83;;;0.80;99.90;;;;;;5069304;28;20480;-72
2021/12/09 08:00:28;;;;;;;43.60;21.58;;;0.70;99.90;;;;;;5069649;28;20040;-72
2021/12/09 08:02:56;;;;;;;55.50;21.35;;;0.50;99.90;;;;;;5065085;28;20115;-71
2021/12/09 08:05:25;;;;;;;47.35;22.20;;;0.60;99.90;;;;;;5049677;28;20041;-71
2021/12/09 08:07:51;;;;;;;54.45;20.77;;;;;;;;;;5048770;28;20109;-71
2021/12/09 08:10:19;;;;;;;40.78;20.45;;;0.70;99.90;;;;;;5032731;28;20063;-71
2021/12/09 08:12:46;;;;;;;46.05;20.08;;;0.40;99.90;;;;;;5054280;28;20040;-71
2021/12/09 08:15:16;;;;;;;38.42;20.73;;;0.70;99.90;;;;;;5069008;28;20245;-71
2021/12/09 08:20:14;;;;;;;50.40;23.35;;;1.10;99.90;;;;;;5069406;28;20098;-72
2021/12/09 08:22:44;;;;;;;49.50;21.30;;;0.50;99.90;;;;;;5070344;28;20059;-74
2021/12/09 08:25:13;;;;;;;51.78;21.60;;;0.40;99.90;;;;;;5069242;28;20040;-76
2021/12/09 08:27:45;;;;;;;42.33;21.33;;;0.80;99.90;;;;;;5052343;28;20052;-73
2021/12/09 08:30:14;;;;;;;44.28;21.73;;;0.00;99.90;;;;;;5067833;28;20064;-73
2021/12/09 08:32:40;;;;;;;50.83;22.77;;;-0.30;99.90;;;;;;5066391;28;20129;-73
2021/12/09 08:35:10;;;;;;;46.88;22.05;;;1.80;99.90;;;;;;5048462;28;20053;-74
2021/12/09 08:37:36;;;;;;;45.85;21.38;;;0.90;99.90;;;;;;5031835;28;20083;-73
2021/12/09 08:40:05;;;;;;;50.25;20.60;;;0.80;99.90;;;;;;5048295;28;20099;-73
2021/12/09 08:42:31;;;;;;;40.30;20.98;;;1.00;99.90;;;;;;5048626;28;20044;-73
2021/12/09 08:44:56;;;;;;;41.28;21.85;;;1.80;99.90;;;;;;5032261;28;20059;-73
2021/12/09 08:47:23;;;;;;;44.20;21.23;;;;;;;;;;5048974;28;20416;-74
2021/12/09 08:49:49;;;;;;;44.47;21.13;;;0.80;99.90;;;;;;5048230;28;20730;-74
2021/12/09 08:52:15;;;;;;;43.35;20.40;;;0.70;99.90;;;;;;5048876;28;20048;-73
2021/12/09 08:54:40;;;;;;;38.00;20.42;;;1.30;99.90;;;;;;5048395;28;20097;-73
2021/12/09 08:57:06;;;;;;;45.97;19.92;;;0.30;99.90;;;;;;5063477;28;20040;-74
2021/12/09 08:59:32;;;;;;;47.92;21.52;;;0.90;99.90;;;;;;5068430;28;20077;-73
2021/12/09 09:01:58;;;;;;;35.72;19.92;;;;;;;;;;5068715;28;20056;-73
2021/12/09 09:04:24;;;;;;;42.25;19.90;;;1.10;99.90;;;;;;5052214;28;20045;-73
2021/12/09 09:06:57;;;;;;;41.70;22.95;;;1.20;99.90;;;;;;5032124;28;20053;-73
2021/12/09 09:09:26;;;;;;;56.03;22.10;;;1.10;99.90;;;;;;5049193;28;20069;-73
2021/12/09 09:11:53;;;;;;;39.72;19.90;;;0.30;99.90;;;;;;5068184;28;20179;-72
2021/12/09 09:14:19;;;;;;;47.95;19.67;;;;;;;;;;5068590;28;20040;-72
2021/12/09 09:16:45;;;;;;;39.42;18.65;;;1.20;99.90;;;;;;5067985;28;20072;-71
2021/12/09 09:19:13;;;;;;;37.97;19.58;;;1.10;99.90;;;;;;5068440;28;20040;-72
2021/12/09 09:21:40;;;;;;;33.33;18.77;;;0.90;99.90;;;;;;5067981;28;20056;-72
2021/12/09 09:24:05;;;;;;;52.85;23.77;;;0.90;99.90;;;;;;5068546;28;20087;-72
2021/12/09 09:26:31;;;;;;;36.65;21.00;;;1.50;99.90;;;;;;5051325;28;20090;-72
2021/12/09 09:28:59;;;;;;;39.83;19.35;;;1.40;99.90;;;;;;5068552;28;20040;-72
2021/12/09 09:31:29;;;;;;;42.17;18.73;;;1.30;99.90;;;;;;5071997;28;20080;-72
2021/12/09 09:33:55;;;;;;;38.05;17.10;;;1.40;99.90;;;;;;5072212;28;20045;-72
2021/12/09 09:36:22;;;;;;;37.25;17.65;;;;;;;;;;5072169;28;20105;-72
2021/12/09 09:38:48;;;;;;;47.50;20.05;;;;;;;;;;5055434;28;20491;-71
2021/12/09 09:41:17;;;;;;;51.58;22.73;;;2.50;99.90;;;;;;5071887;28;20127;-67
2021/12/09 09:46:19;;;;;;;95.00;30.40;;;3.70;99.90;;;;;;5071622;28;20060;-67
2021/12/09 09:48:46;;;;;;;43.28;23.80;;;4.00;99.90;;;;;;5055311;28;20044;-67
2021/12/09 09:51:12;;;;;;;38.80;19.77;;;3.60;99.90;;;;;;5071929;28;20098;-67
2021/12/09 09:53:42;;;;;;;40.65;18.50;;;2.90;99.90;;;;;;5071633;28;20048;-67
2021/12/09 09:56:15;;;;;;;34.42;16.75;;;3.60;99.90;;;;;;5071688;28;20515;-67
2021/12/09 09:58:52;;;;;;;31.75;14.90;;;3.30;99.90;;;;;;5072122;28;20036;-67
2021/12/09 10:01:21;;;;;;;26.60;12.02;;;3.50;99.90;;;;;;5055445;28;20064;-67
2021/12/09 10:03:51;;;;;;;24.88;11.88;;;3.50;99.90;;;;;;5071447;28;20063;-67
2021/12/09 10:06:19;;;;;;;21.17;10.93;;;3.40;99.90;;;;;;5055164;28;20099;-67
2021/12/09 10:08:45;;;;;;;21.73;10.50;;;3.70;99.90;;;;;;5071714;28;20128;-67
2021/12/09 10:11:11;;;;;;;21.83;10.32;;;3.30;99.90;;;;;;5071794;28;20032;-67
2021/12/09 10:13:40;;;;;;;22.38;10.35;;;3.20;99.90;;;;;;5071859;28;20507;-67
2021/12/09 10:16:21;;;;;;;19.13;10.65;;;3.30;99.90;;;;;;5071737;28;20534;-71
2021/12/09 10:18:50;;;;;;;26.10;10.55;;;3.20;99.90;;;;;;5071420;28;20051;-71
2021/12/09 10:21:29;;;;;;;19.13;9.40;;;3.40;99.90;;;;;;5055040;28;20041;-71
2021/12/09 10:24:04;;;;;;;24.88;10.57;;;3.50;99.90;;;;;;5071237;28;20090;-71
2021/12/09 10:26:37;;;;;;;18.70;9.73;;;3.40;99.90;;;;;;5071395;28;20108;-67
2021/12/09 10:29:26;;;;;;;20.25;10.00;;;3.50;99.90;;;;;;5071180;28;20400;-67
2021/12/09 10:31:58;;;;;;;22.13;9.32;;;3.50;99.90;;;;;;5054703;28;20432;-67
2021/12/09 10:34:40;;;;;;;26.17;10.43;;;3.30;99.90;;;;;;5071484;28;20083;-67
2021/12/09 10:37:16;;;;;;;21.17;9.63;;;3.50;99.90;;;;;;5071087;28;20568;-67
2021/12/09 10:39:53;;;;;;;21.00;9.25;;;4.40;99.90;;;;;;5054129;28;20079;-67
2021/12/09 10:42:23;;;;;;;17.40;8.95;;;3.70;99.90;;;;;;5070445;28;20049;-67
2021/12/09 10:45:04;;;;;;;22.27;10.48;;;3.60;99.90;;;;;;5071147;28;20050;-67
2021/12/09 10:50:18;;;;;;;18.67;9.02;;;3.50;99.90;;;;;;5071129;28;20074;-67
2021/12/09 10:52:50;;;;;;;24.48;9.48;;;4.10;99.90;;;;;;5070935;28;20512;-66
2021/12/09 10:55:32;;;;;;;21.23;10.30;;;3.90;99.90;;;;;;5071692;28;20105;-67
2021/12/09 10:58:08;;;;;;;25.67;9.77;;;3.60;99.90;;;;;;5070983;28;20052;-67
2021/12/09 11:00:52;;;;;;;19.85;9.98;;;3.70;99.90;;;;;;5054110;28;20040;-67
2021/12/09 11:03:33;;;;;;;18.92;10.05;;;3.50;99.90;;;;;;5080443;28;20049;-66
2021/12/09 11:06:05;;;;;;;23.17;10.80;;;3.70;99.90;;;;;;5051020;28;20044;-66
2021/12/09 11:08:31;;;;;;;23.45;11.27;;;;;;;;;;5050239;28;20059;-66
2021/12/09 11:11:18;;;;;;;22.13;11.75;;;3.40;99.90;;;;;;5050774;28;20045;-66
2021/12/09 11:13:57;;;;;;;28.15;12.05;;;3.50;99.90;;;;;;5033541;28;20107;-66
2021/12/09 11:16:27;;;;;;;24.20;13.63;;;3.80;99.90;;;;;;5050981;28;20588;-66
2021/12/09 11:18:58;;;;;;;22.60;13.30;;;3.80;99.90;;;;;;5050101;28;20447;-66
2021/12/09 11:21:26;;;;;;;22.20;11.70;;;;;;;;;;5050288;28;20049;-67
2021/12/09 11:24:05;;;;;;;26.67;12.25;;;3.90;99.90;;;;;;5049917;28;20056;-67
2021/12/09 11:26:55;;;;;;;20.17;10.93;;;3.70;99.90;;;;;;5050443;28;20045;-67
2021/12/09 11:29:23;;;;;;;23.13;11.70;;;;;;;;;;5033324;28;20079;-67
2021/12/09 11:32:14;;;;;;;29.42;11.23;;;3.90;99.90;;;;;;5050100;28;20048;-67
2021/12/09 11:35:04;;;;;;;22.58;10.80;;;3.80;99.90;;;;;;5068016;28;20044;-67
2021/12/09 11:37:40;;;;;;;28.27;12.15;;;3.90;99.90;;;;;;5070259;28;20492;-67
2021/12/09 11:40:07;;;;;;;24.13;11.50;;;;;;;;;;5070077;28;20064;-67
2021/12/09 11:42:45;;;;;;;26.05;11.50;;;3.80;99.90;;;;;;5069613;28;20506;-67
2021/12/09 11:45:13;;;;;;;25.08;11.60;;;3.80;99.90;;;;;;5067908;28;20073;-67
2021/12/09 11:47:42;;;;;;;26.25;12.05;;;4.20;99.90;;;;;;5069735;28;20064;-67
2021/12/09 11:50:11;;;;;;;24.20;12.43;;;3.30;99.90;;;;;;5069998;28;20059;-67
2021/12/09 11:52:38;;;;;;;21.77;12.05;;;;;;;;;;5068978;28;20060;-67
2021/12/09 11:55:07;;;;;;;24.95;12.10;;;4.00;99.90;;;;;;5069600;28;20048;-67
2021/12/09 12:13:09;;;;;;;23.83;11.38;;;3.80;99.90;;;;;;5048965;28;20133;-67
2021/12/09 12:18:19;;;;;;;21.38;11.32;;;4.20;99.90;;;;;;5049296;28;20044;-67
2021/12/09 12:21:02;;;;;;;26.70;11.52;;;;;;;;;;5049050;28;20618;-67
2021/12/09 12:38:03;;;;;;;24.98;12.30;;;3.90;99.90;;;;;;5070499;28;20049;-67
2021/12/09 12:40:40;;;;;;;28.17;12.52;;;3.80;99.90;;;;;;5069451;28;20149;-67
2021/12/09 12:43:14;;;;;;;26.35;14.82;;;3.80;99.90;;;;;;5068525;28;20613;-67
2021/12/09 12:48:43;;;;;;;25.17;13.57;;;3.90;99.90;;;;;;5069205;28;20044;-67
2021/12/09 12:51:17;;;;;;;26.88;13.73;;;3.50;99.90;;;;;;5068897;28;20086;-67
2021/12/09 12:53:49;;;;;;;23.65;13.48;;;3.80;99.90;;;;;;5069143;28;20053;-67
2021/12/09 12:56:19;;;;;;;29.65;14.15;;;3.40;99.90;;;;;;5069122;28;20127;-67
2021/12/09 12:59:04;;;;;;;28.13;14.30;;;3.80;99.90;;;;;;5061753;28;20036;-67
2021/12/09 13:01:30;;;;;;;25.65;14.15;;;;;;;;;;5050830;28;20373;-67
2021/12/09 13:04:03;;;;;;;27.60;14.02;;;;;;;;;;5050944;28;20098;-67
2021/12/09 13:06:47;;;;;;;28.30;15.07;;;3.80;99.90;;;;;;5051429;28;20048;-67
2021/12/09 13:09:52;;;;;;;31.15;15.93;;;3.90;99.90;;;;;;5062757;28;20496;-67
2021/12/09 13:12:12;;;;;;;28.70;14.80;;;;;;;;;;5068861;28;20059;-67
2021/12/09 13:15:23;;;;;;;27.20;15.73;;;4.00;99.90;;;;;;5069429;28;20087;-67
2021/12/09 13:18:00;;;;;;;26.88;14.65;;;;;;;;;;5069719;28;20055;-67
2021/12/09 13:20:35;;;;;;;25.67;14.95;;;3.80;99.90;;;;;;5052621;28;20513;-67
2021/12/09 13:23:25;;;;;;;27.83;15.25;;;3.90;99.90;;;;;;5070680;28;20043;-67
2021/12/09 13:26:26;;;;;;;28.20;14.65;;;3.90;99.90;;;;;;5070679;28;20076;-67
2021/12/09 13:29:01;;;;;;;28.77;14.77;;;3.90;99.90;;;;;;5068890;28;20073;-67
2021/12/09 13:32:00;;;;;;;35.45;14.63;;;3.90;99.90;;;;;;5070510;28;20041;-67
2021/12/09 13:34:35;;;;;;;26.20;14.77;;;4.10;99.90;;;;;;5069440;28;20126;-67
2021/12/09 13:40:05;;;;;;;28.27;14.98;;;3.80;99.90;;;;;;5069401;28;20056;-67
2021/12/09 13:48:25;;;;;;;30.63;15.57;;;4.10;99.90;;;;;;5068849;28;20501;-71
2021/12/09 13:50:55;;;;;;;25.98;14.98;;;4.20;99.90;;;;;;5070216;28;20044;-72
2021/12/09 13:56:08;;;;;;;27.80;16.40;;;4.10;99.90;;;;;;5070146;28;20044;-72
2021/12/09 13:58:34;;;;;;;30.10;16.08;;;3.90;99.90;;;;;;5068830;28;20048;-72
2021/12/09 14:00:59;;;;;;;30.05;16.15;;;4.00;99.90;;;;;;5068844;28;20045;-72
2021/12/09 14:03:27;;;;;;;34.85;17.38;;;4.20;99.90;;;;;;5048749;28;20462;-72